Time;durP1;ratioP1;P1;durP2;ratioP2;P2;SDS_P1;SDS_P2;PMS_P1;PMS_P2;Temp;Humidity;BMP_temperature;BMP_pressure;BME280_temperature;BME280_humidity;BME280_pressure;Samples;Min_cycle;Max_cycle;Signal;HPM_P1;HPM_P2
2023/08/10 00:02:11;;;;;;;8.63;2.90;;;14.30;5.70;;;;;;5068713;28;20407;-72
2023/08/10 00:04:37;;;;;;;7.45;2.75;;;14.30;6.80;;;;;;5068283;28;20425;-72
2023/08/10 00:07:02;;;;;;;8.70;2.90;;;14.30;5.50;;;;;;5069103;28;20403;-72
2023/08/10 00:09:28;;;;;;;8.65;2.50;;;14.30;5.70;;;;;;5069066;28;20798;-72
2023/08/10 00:11:53;;;;;;;7.00;2.97;;;14.30;5.20;;;;;;5059651;28;20836;-72
2023/08/10 00:14:19;;;;;;;8.07;2.60;;;14.30;6.00;;;;;;5068976;28;20406;-73
2023/08/10 00:16:45;;;;;;;7.57;2.85;;;14.30;5.40;;;;;;5050241;28;20403;-72
2023/08/10 00:19:10;;;;;;;5.80;2.47;;;14.30;4.70;;;;;;5050979;28;20904;-72
2023/08/10 00:21:36;;;;;;;9.40;2.67;;;14.30;4.60;;;;;;5067984;28;20404;-72
2023/08/10 00:24:01;;;;;;;8.90;2.73;;;14.30;5.60;;;;;;5068549;28;20434;-72
2023/08/10 00:26:28;;;;;;;8.15;2.50;;;14.20;6.50;;;;;;5067928;28;20877;-73
2023/08/10 00:28:54;;;;;;;6.97;3.00;;;14.20;6.20;;;;;;5068632;28;20396;-72
2023/08/10 00:31:19;;;;;;;6.25;2.40;;;14.20;6.60;;;;;;5068465;28;21025;-72
2023/08/10 00:33:45;;;;;;;7.43;2.80;;;14.20;7.00;;;;;;5068004;28;20403;-72
2023/08/10 00:36:11;;;;;;;7.17;2.90;;;14.10;7.60;;;;;;5050362;28;20770;-72
2023/08/10 00:38:38;;;;;;;8.38;2.80;;;14.10;10.00;;;;;;5068371;28;20403;-72
2023/08/10 00:41:04;;;;;;;9.00;2.80;;;14.10;11.10;;;;;;5068326;28;20460;-72
2023/08/10 00:43:30;;;;;;;7.53;2.92;;;14.10;10.90;;;;;;5068016;28;20802;-73
2023/08/10 00:45:56;;;;;;;6.87;2.80;;;14.10;11.50;;;;;;5067982;28;20400;-72
2023/08/10 00:48:23;;;;;;;6.72;2.90;;;14.00;10.80;;;;;;5068254;28;20414;-72
2023/08/10 00:50:50;;;;;;;6.20;2.60;;;14.00;11.70;;;;;;5067832;28;20832;-72
2023/08/10 00:53:18;;;;;;;8.88;2.90;;;14.00;13.50;;;;;;5067552;28;20807;-72
2023/08/10 00:55:45;;;;;;;8.40;2.83;;;14.00;13.40;;;;;;5033559;28;20411;-72
2023/08/10 00:58:11;;;;;;;6.18;2.65;;;14.00;13.10;;;;;;5056932;28;20405;-72
2023/08/10 01:00:38;;;;;;;6.82;2.90;;;14.00;13.50;;;;;;5067910;28;20754;-72
2023/08/10 01:03:04;;;;;;;14.95;3.35;;;14.00;15.20;;;;;;5067912;28;20916;-72
2023/08/10 01:05:36;;;;;;;8.13;3.17;;;14.00;14.80;;;;;;5049523;28;20894;-72
2023/08/10 01:08:12;;;;;;;9.30;3.00;;;14.00;15.90;;;;;;5067444;28;20411;-72
2023/08/10 01:10:47;;;;;;;8.05;2.80;;;13.90;15.90;;;;;;5067273;28;20403;-72
2023/08/10 01:13:22;;;;;;;6.80;2.85;;;13.90;16.20;;;;;;5067514;28;20498;-71
2023/08/10 01:15:54;;;;;;;6.65;2.40;;;13.90;16.50;;;;;;5065855;28;20420;-72
2023/08/10 01:18:26;;;;;;;6.10;2.80;;;13.90;17.90;;;;;;5063393;28;20391;-72
2023/08/10 01:20:54;;;;;;;8.65;2.90;;;13.90;18.60;;;;;;5066988;28;20407;-71
2023/08/10 01:23:35;;;;;;;7.83;2.70;;;13.90;18.70;;;;;;5067466;28;20426;-72
2023/08/10 01:26:01;;;;;;;7.45;2.65;;;13.90;18.80;;;;;;5067678;28;20410;-71
2023/08/10 01:28:27;;;;;;;7.47;3.00;;;13.90;18.90;;;;;;5067784;28;20408;-71
2023/08/10 01:30:53;;;;;;;8.13;2.67;;;13.90;18.60;;;;;;5049548;28;20404;-71
2023/08/10 01:33:19;;;;;;;8.40;2.92;;;13.80;18.10;;;;;;5067293;28;20408;-71
2023/08/10 01:35:45;;;;;;;7.32;2.70;;;13.80;18.30;;;;;;5067614;28;20403;-71
2023/08/10 01:38:11;;;;;;;8.97;2.70;;;13.80;18.00;;;;;;5067781;28;20414;-71
2023/08/10 01:40:37;;;;;;;5.68;2.65;;;13.70;18.80;;;;;;5067340;28;20981;-71
2023/08/10 01:43:03;;;;;;;6.60;2.85;;;13.70;17.90;;;;;;5049174;28;20442;-71
2023/08/10 01:45:30;;;;;;;7.68;3.08;;;13.70;18.50;;;;;;5049856;28;20564;-71
2023/08/10 01:48:25;;;;;;;5.45;2.60;;;13.60;18.50;;;;;;5049336;28;20453;-71
2023/08/10 01:50:53;;;;;;;7.80;3.50;;;13.60;20.10;;;;;;5029957;28;20434;-71
2023/08/10 01:53:26;;;;;;;5.95;2.92;;;13.60;20.80;;;;;;5047531;28;20400;-71
2023/08/10 01:55:52;;;;;;;8.50;2.92;;;13.60;23.10;;;;;;5067198;28;20395;-72
2023/08/10 01:58:18;;;;;;;5.93;2.97;;;13.60;24.10;;;;;;5066927;28;20966;-71
2023/08/10 02:00:44;;;;;;;8.43;3.28;;;13.60;24.60;;;;;;5067163;28;20499;-72
2023/08/10 02:03:09;;;;;;;6.75;3.10;;;13.70;24.70;;;;;;5067472;28;20490;-71
2023/08/10 02:05:35;;;;;;;6.53;3.27;;;13.60;25.60;;;;;;5066976;28;21143;-71
2023/08/10 02:08:01;;;;;;;7.40;2.97;;;13.70;27.10;;;;;;5067383;28;20400;-71
2023/08/10 02:10:26;;;;;;;6.60;3.13;;;13.70;28.20;;;;;;5068814;28;20500;-71
2023/08/10 02:12:52;;;;;;;6.83;2.80;;;13.70;28.20;;;;;;5036171;28;21041;-71
2023/08/10 02:15:18;;;;;;;7.45;3.00;;;13.70;29.00;;;;;;5070743;28;20501;-71
2023/08/10 02:17:44;;;;;;;5.97;2.78;;;13.70;28.20;;;;;;5070585;28;20404;-71
2023/08/10 02:20:14;;;;;;;6.57;3.25;;;13.70;28.20;;;;;;5059424;28;21097;-71
2023/08/10 02:22:42;;;;;;;6.25;3.15;;;13.70;27.70;;;;;;5053186;28;20730;-71
2023/08/10 02:25:09;;;;;;;6.68;3.08;;;13.70;26.50;;;;;;5052311;28;20491;-71
2023/08/10 02:27:36;;;;;;;7.82;3.30;;;13.60;27.20;;;;;;5070630;28;20992;-71
2023/08/10 02:30:02;;;;;;;7.47;3.17;;;13.60;27.40;;;;;;5070285;28;20404;-71
2023/08/10 02:32:28;;;;;;;9.43;3.40;;;13.60;28.10;;;;;;5051044;28;20514;-71
2023/08/10 02:34:53;;;;;;;6.68;3.55;;;13.60;29.80;;;;;;5069759;28;21019;-71
2023/08/10 02:37:19;;;;;;;7.87;3.10;;;13.70;30.40;;;;;;5070369;28;20403;-71
2023/08/10 02:39:45;;;;;;;6.90;3.03;;;13.70;31.10;;;;;;5069377;28;20424;-71
2023/08/10 02:42:10;;;;;;;8.07;2.80;;;13.70;31.50;;;;;;5069869;28;20399;-71
2023/08/10 02:44:36;;;;;;;8.97;3.60;;;13.70;32.50;;;;;;5069182;28;20392;-71
2023/08/10 02:47:02;;;;;;;6.90;3.30;;;13.70;31.80;;;;;;5069583;28;20436;-71
2023/08/10 02:49:28;;;;;;;6.00;3.50;;;13.70;33.10;;;;;;5051706;28;20863;-72
2023/08/10 02:51:53;;;;;;;5.83;3.47;;;13.70;33.10;;;;;;5070323;28;20431;-72
2023/08/10 02:54:19;;;;;;;5.63;2.90;;;13.70;33.10;;;;;;5069995;28;20890;-71
2023/08/10 02:56:44;;;;;;;10.00;3.50;;;13.80;33.10;;;;;;5052138;28;20506;-72
2023/08/10 02:59:10;;;;;;;8.10;3.30;;;13.70;32.40;;;;;;5052165;28;20416;-70
2023/08/10 03:01:36;;;;;;;7.17;3.20;;;13.70;32.30;;;;;;5070276;28;20408;-70
2023/08/10 03:04:01;;;;;;;7.53;3.15;;;13.70;32.80;;;;;;5051986;28;20396;-70
2023/08/10 03:06:28;;;;;;;8.17;3.13;;;13.70;34.20;;;;;;5052040;28;20431;-70
2023/08/10 03:08:54;;;;;;;8.10;3.30;;;13.70;34.40;;;;;;5051722;28;20436;-70
2023/08/10 03:11:19;;;;;;;8.67;3.50;;;13.70;35.40;;;;;;5069614;28;20463;-71
2023/08/10 03:13:45;;;;;;;8.38;3.33;;;13.80;35.80;;;;;;5069784;28;20477;-71
2023/08/10 03:16:11;;;;;;;7.70;3.23;;;13.80;37.60;;;;;;5069796;28;20410;-71
2023/08/10 03:18:36;;;;;;;8.82;3.53;;;13.80;38.00;;;;;;5069958;28;20462;-71
2023/08/10 03:21:02;;;;;;;7.93;3.33;;;13.80;38.70;;;;;;5068956;28;20408;-71
2023/08/10 03:23:27;;;;;;;7.32;2.90;;;13.80;39.00;;;;;;5069880;28;20392;-71
2023/08/10 03:25:53;;;;;;;5.53;2.83;;;13.80;38.80;;;;;;5069111;28;20419;-71
2023/08/10 03:28:19;;;;;;;7.20;2.95;;;13.80;38.50;;;;;;5069191;28;20396;-71
2023/08/10 03:30:44;;;;;;;7.60;3.13;;;13.80;38.20;;;;;;5051520;28;20408;-71
2023/08/10 03:33:10;;;;;;;8.20;3.20;;;13.80;38.70;;;;;;5051089;28;20482;-71
2023/08/10 03:35:36;;;;;;;7.63;3.50;;;13.80;38.70;;;;;;5069445;28;20395;-71
2023/08/10 03:38:01;;;;;;;7.63;3.20;;;13.80;39.80;;;;;;5069274;28;20406;-71
2023/08/10 03:40:27;;;;;;;8.70;3.10;;;13.80;41.30;;;;;;5069342;28;20876;-71
2023/08/10 03:42:52;;;;;;;8.30;2.93;;;13.80;40.90;;;;;;5040824;28;20420;-72
2023/08/10 03:45:18;;;;;;;7.53;3.03;;;13.90;42.10;;;;;;5034607;28;20404;-72
2023/08/10 03:47:43;;;;;;;6.23;3.27;;;13.90;42.40;;;;;;5059465;28;20495;-71
2023/08/10 03:50:10;;;;;;;6.68;2.67;;;13.90;41.90;;;;;;5050969;28;20423;-71
2023/08/10 03:52:36;;;;;;;8.85;3.40;;;13.90;41.80;;;;;;5050952;28;20574;-71
2023/08/10 03:55:03;;;;;;;6.32;2.90;;;14.00;41.20;;;;;;5069578;28;21384;-71
2023/08/10 03:57:28;;;;;;;6.05;2.65;;;13.90;41.70;;;;;;5068942;28;20404;-71
2023/08/10 03:59:54;;;;;;;9.70;3.37;;;14.00;42.80;;;;;;5050728;28;20821;-71
2023/08/10 04:02:20;;;;;;;6.30;3.07;;;14.00;43.50;;;;;;5050974;28;20406;-71
2023/08/10 04:04:45;;;;;;;6.85;2.72;;;14.00;43.20;;;;;;5068896;28;20404;-71
2023/08/10 04:07:12;;;;;;;5.27;2.90;;;14.00;42.80;;;;;;5068993;28;20412;-71
2023/08/10 04:09:39;;;;;;;7.68;3.03;;;14.00;43.30;;;;;;5068383;28;20487;-71
2023/08/10 04:12:05;;;;;;;6.75;2.95;;;14.00;43.50;;;;;;5068301;28;20526;-71
2023/08/10 04:14:31;;;;;;;7.78;3.28;;;14.10;43.90;;;;;;5050983;28;20504;-71
2023/08/10 04:16:57;;;;;;;5.43;2.92;;;14.10;44.60;;;;;;5068416;28;20425;-71
2023/08/10 04:19:23;;;;;;;8.57;3.22;;;14.10;45.10;;;;;;5068732;28;20438;-72
2023/08/10 04:21:49;;;;;;;6.32;2.92;;;14.10;45.80;;;;;;5068200;28;20400;-71
2023/08/10 04:24:14;;;;;;;9.00;2.97;;;14.10;45.90;;;;;;5068617;28;20399;-71
2023/08/10 04:26:40;;;;;;;3.93;2.80;;;14.10;46.30;;;;;;5068407;28;20407;-71
2023/08/10 04:29:06;;;;;;;6.55;2.97;;;14.20;45.80;;;;;;5068384;28;20404;-71
2023/08/10 04:31:32;;;;;;;6.40;2.50;;;14.20;45.20;;;;;;5068009;28;20432;-71
2023/08/10 04:33:58;;;;;;;6.17;2.63;;;14.20;45.50;;;;;;5067193;28;20510;-71
2023/08/10 04:36:23;;;;;;;8.85;2.95;;;14.20;46.20;;;;;;5050304;28;20486;-71
2023/08/10 04:38:51;;;;;;;8.23;3.10;;;14.20;46.00;;;;;;5067707;28;20395;-72
2023/08/10 04:41:17;;;;;;;5.90;2.53;;;14.30;45.60;;;;;;5067877;28;20909;-71
2023/08/10 04:43:43;;;;;;;7.80;2.38;;;14.30;45.40;;;;;;5067310;28;20457;-71
2023/08/10 04:46:09;;;;;;;7.00;3.10;;;14.30;45.70;;;;;;5067879;28;20399;-71
2023/08/10 04:48:34;;;;;;;6.93;2.60;;;14.30;46.20;;;;;;5067515;28;20399;-71
2023/08/10 04:51:00;;;;;;;6.70;2.40;;;14.30;46.00;;;;;;5067362;28;20432;-71
2023/08/10 04:53:26;;;;;;;7.37;3.03;;;14.40;46.30;;;;;;5067302;28;20402;-71
2023/08/10 04:55:52;;;;;;;7.18;2.47;;;14.40;47.50;;;;;;5067767;28;20404;-70
2023/08/10 04:58:18;;;;;;;5.45;2.40;;;14.40;47.40;;;;;;5068065;28;20785;-71
2023/08/10 05:00:43;;;;;;;5.63;2.60;;;14.50;47.20;;;;;;5067798;28;20400;-71
2023/08/10 05:03:09;;;;;;;5.50;2.63;;;14.50;47.40;;;;;;5067983;28;20760;-71
2023/08/10 05:05:37;;;;;;;6.30;2.97;;;14.60;47.90;;;;;;5067545;28;20496;-71
2023/08/10 05:08:03;;;;;;;4.97;2.55;;;14.60;48.80;;;;;;5068025;28;20392;-71
2023/08/10 05:10:28;;;;;;;6.65;2.78;;;14.60;49.90;;;;;;5067335;28;20771;-71
2023/08/10 05:12:54;;;;;;;6.80;2.63;;;14.70;50.20;;;;;;5067507;28;20933;-71
2023/08/10 05:15:20;;;;;;;7.40;2.67;;;14.70;50.20;;;;;;5067504;28;20415;-71
2023/08/10 05:17:45;;;;;;;6.77;2.73;;;14.70;50.20;;;;;;5067978;28;20510;-71
2023/08/10 05:20:11;;;;;;;7.03;2.60;;;14.80;50.00;;;;;;5067530;28;20407;-72
2023/08/10 05:22:40;;;;;;;6.20;2.45;;;14.80;50.50;;;;;;5067524;28;20407;-71
2023/08/10 05:25:08;;;;;;;8.80;2.60;;;14.80;50.70;;;;;;5066423;28;20399;-71
2023/08/10 05:27:35;;;;;;;5.90;2.30;;;14.90;50.90;;;;;;5066820;28;20427;-71
2023/08/10 05:30:01;;;;;;;7.75;2.50;;;15.00;51.40;;;;;;5067185;28;20403;-71
2023/08/10 05:32:27;;;;;;;6.10;2.40;;;15.00;51.00;;;;;;5067711;28;20430;-71
2023/08/10 05:34:53;;;;;;;7.60;2.73;;;15.10;51.30;;;;;;5049482;28;20436;-71
2023/08/10 05:37:19;;;;;;;7.07;2.75;;;15.10;51.90;;;;;;5049486;28;20412;-71
2023/08/10 05:39:44;;;;;;;6.70;2.47;;;15.20;52.10;;;;;;5067724;28;20399;-71
2023/08/10 05:42:10;;;;;;;6.20;2.40;;;15.20;51.90;;;;;;5067723;28;20407;-71
2023/08/10 05:44:36;;;;;;;6.75;2.83;;;15.30;52.30;;;;;;5069957;28;20395;-71
2023/08/10 05:47:01;;;;;;;6.17;2.20;;;15.30;51.10;;;;;;5071302;28;20400;-72
2023/08/10 05:49:27;;;;;;;6.63;2.05;;;15.40;51.40;;;;;;5071640;28;21204;-72
2023/08/10 05:51:52;;;;;;;6.20;2.37;;;15.40;50.60;;;;;;5071176;28;20441;-72
2023/08/10 05:54:18;;;;;;;7.07;2.50;;;15.40;50.40;;;;;;5071654;28;20885;-72
2023/08/10 05:56:44;;;;;;;7.47;2.50;;;15.40;50.70;;;;;;5071185;28;20453;-72
2023/08/10 05:59:09;;;;;;;7.82;2.33;;;15.50;50.60;;;;;;5070604;28;20406;-72
2023/08/10 06:01:35;;;;;;;5.73;2.00;;;15.50;49.80;;;;;;5070823;28;20951;-72
2023/08/10 06:04:02;;;;;;;6.07;2.03;;;15.60;50.10;;;;;;5071193;28;20399;-72
2023/08/10 06:06:29;;;;;;;5.32;2.13;;;15.70;49.60;;;;;;5071116;28;20770;-72
2023/08/10 06:08:54;;;;;;;6.60;2.20;;;15.70;49.10;;;;;;5070869;28;20487;-72
2023/08/10 06:11:21;;;;;;;6.10;1.70;;;15.80;49.20;;;;;;5070419;28;20536;-72
2023/08/10 06:13:46;;;;;;;7.15;1.80;;;15.80;48.50;;;;;;5071045;28;20829;-72
2023/08/10 06:16:12;;;;;;;6.40;1.60;;;15.90;45.50;;;;;;5050756;28;20443;-72
2023/08/10 06:18:38;;;;;;;6.05;1.65;;;15.90;42.90;;;;;;5067451;28;20404;-71
2023/08/10 06:21:04;;;;;;;9.00;1.63;;;15.90;38.50;;;;;;5065144;28;20399;-73
2023/08/10 06:23:29;;;;;;;7.45;1.67;;;16.00;37.30;;;;;;5060046;28;20806;-73
2023/08/10 06:25:55;;;;;;;7.70;1.93;;;16.10;34.30;;;;;;5068450;28;20415;-72
2023/08/10 06:28:21;;;;;;;7.65;1.23;;;16.10;33.50;;;;;;5070787;28;20387;-72
2023/08/10 06:30:46;;;;;;;5.70;1.40;;;16.10;31.80;;;;;;5071297;28;20498;-72
2023/08/10 06:33:12;;;;;;;6.25;1.48;;;16.10;31.20;;;;;;5070357;28;20439;-72
2023/08/10 06:35:39;;;;;;;5.77;1.30;;;16.20;30.00;;;;;;5068267;28;20400;-72
2023/08/10 06:38:04;;;;;;;7.55;2.05;;;16.20;28.70;;;;;;5067444;28;20400;-72
2023/08/10 06:40:34;;;;;;;6.07;1.60;;;16.20;28.40;;;;;;5070620;28;20415;-72
2023/08/10 06:43:00;;;;;;;6.38;1.50;;;16.30;28.70;;;;;;5051946;28;20400;-72
2023/08/10 06:45:25;;;;;;;6.73;1.23;;;16.30;29.00;;;;;;5051971;28;20812;-72
2023/08/10 06:47:51;;;;;;;5.35;1.30;;;16.30;28.10;;;;;;5052982;28;20415;-73
2023/08/10 06:50:17;;;;;;;7.28;1.33;;;16.30;27.30;;;;;;5070615;28;20445;-72
2023/08/10 06:52:45;;;;;;;4.97;1.47;;;16.40;27.80;;;;;;5052506;28;20451;-70
2023/08/10 06:55:11;;;;;;;8.47;1.60;;;16.40;28.90;;;;;;5066242;28;20405;-72
2023/08/10 06:57:37;;;;;;;6.05;1.73;;;16.30;26.80;;;;;;5060835;28;20438;-72
2023/08/10 07:00:07;;;;;;;7.70;1.65;;;16.40;25.80;;;;;;5052186;28;20845;-72
2023/08/10 07:02:33;;;;;;;5.07;1.48;;;16.40;25.40;;;;;;5070113;28;20912;-71
2023/08/10 07:04:59;;;;;;;7.25;1.50;;;16.40;25.70;;;;;;5069552;28;20411;-71
2023/08/10 07:07:24;;;;;;;6.50;1.33;;;16.40;25.00;;;;;;5069631;28;20412;-72
2023/08/10 07:09:50;;;;;;;9.80;2.13;;;16.50;25.90;;;;;;5051504;28;21418;-69
